createdAt,value
2023-02-18T00:01:22.914Z,19.90
2023-02-18T00:03:50.765Z,19.90
2023-02-18T00:06:24.035Z,19.90
2023-02-18T00:08:51.817Z,19.80
2023-02-18T00:11:20.377Z,19.80
2023-02-18T00:13:55.490Z,19.80
2023-02-18T00:16:23.259Z,19.80
2023-02-18T00:18:50.188Z,19.80
2023-02-18T00:21:17.386Z,19.80
2023-02-18T00:23:44.211Z,19.80
2023-02-18T00:26:13.642Z,19.80
2023-02-18T00:28:40.844Z,19.80
2023-02-18T00:31:10.499Z,19.80
2023-02-18T00:33:37.619Z,19.80
2023-02-18T00:36:07.057Z,19.80
2023-02-18T00:38:34.069Z,19.80
2023-02-18T00:41:02.433Z,19.80
2023-02-18T00:43:29.150Z,19.80
2023-02-18T00:45:56.029Z,19.80
2023-02-18T00:48:22.987Z,19.80
2023-02-18T00:50:49.726Z,19.80
2023-02-18T00:53:16.460Z,19.80
2023-02-18T00:55:45.321Z,19.80
2023-02-18T00:58:12.020Z,19.80
2023-02-18T01:00:38.746Z,19.80
2023-02-18T01:03:09.357Z,19.80
2023-02-18T01:05:37.411Z,19.80
2023-02-18T01:08:05.077Z,19.80
2023-02-18T01:10:32.412Z,19.90
2023-02-18T01:12:59.210Z,19.90
2023-02-18T01:15:26.016Z,19.90
2023-02-18T01:17:52.811Z,19.90
2023-02-18T01:20:20.137Z,19.90
2023-02-18T01:22:46.920Z,19.90
2023-02-18T01:25:14.855Z,19.90
2023-02-18T01:27:42.052Z,19.90
2023-02-18T01:30:12.602Z,19.90
2023-02-18T01:32:39.350Z,19.90
2023-02-18T01:35:07.480Z,19.90
2023-02-18T01:37:34.511Z,19.90
2023-02-18T01:40:01.326Z,19.90
2023-02-18T01:42:29.937Z,19.90
2023-02-18T01:45:34.780Z,19.90
2023-02-18T01:48:23.862Z,19.90
2023-02-18T01:50:56.395Z,19.90
2023-02-18T01:53:31.177Z,19.80
2023-02-18T01:56:00.262Z,19.80
2023-02-18T01:58:27.258Z,19.80
2023-02-18T02:00:54.075Z,19.80
2023-02-18T02:03:20.928Z,19.80
2023-02-18T02:05:47.688Z,19.80
2023-02-18T02:08:14.680Z,19.80
2023-02-18T02:10:58.489Z,19.80
2023-02-18T02:13:45.534Z,19.80
2023-02-18T02:16:29.940Z,19.80
2023-02-18T02:19:14.601Z,19.80
2023-02-18T02:22:01.298Z,19.80
2023-02-18T02:24:48.064Z,19.80
2023-02-18T02:27:22.951Z,19.80
2023-02-18T02:30:01.684Z,19.70
2023-02-18T02:33:03.221Z,19.70
2023-02-18T02:35:39.291Z,19.70
2023-02-18T02:38:17.136Z,19.60
2023-02-18T02:40:59.202Z,19.70
2023-02-18T02:43:36.823Z,19.60
2023-02-18T02:46:41.185Z,19.70
2023-02-18T02:49:20.172Z,19.60
2023-02-18T02:51:56.092Z,19.60
2023-02-18T02:54:26.658Z,19.60
2023-02-18T02:57:18.495Z,19.60
2023-02-18T02:59:50.660Z,19.70
2023-02-18T03:02:31.758Z,19.70
2023-02-18T03:05:40.115Z,19.70
2023-02-18T03:08:17.688Z,19.70
2023-02-18T03:11:17.679Z,19.70
2023-02-18T03:14:09.154Z,19.70
2023-02-18T03:16:53.635Z,19.70
2023-02-18T03:19:33.207Z,19.70
2023-02-18T03:22:30.654Z,19.70
2023-02-18T03:24:58.305Z,19.70
2023-02-18T03:27:30.910Z,19.70
2023-02-18T03:30:16.174Z,19.70
2023-02-18T03:32:43.966Z,19.70
2023-02-18T03:35:15.130Z,19.70
2023-02-18T03:37:52.761Z,19.70
2023-02-18T03:40:19.977Z,19.70
2023-02-18T03:42:46.714Z,19.70
2023-02-18T03:45:13.478Z,19.70
2023-02-18T03:47:40.399Z,19.70
2023-02-18T03:50:07.996Z,19.70
2023-02-18T03:52:36.656Z,19.70
2023-02-18T03:55:07.373Z,19.70
2023-02-18T03:57:34.217Z,19.70
2023-02-18T04:00:01.024Z,19.70
2023-02-18T04:02:27.824Z,19.70
2023-02-18T04:04:54.771Z,19.70
2023-02-18T04:07:21.604Z,19.70
2023-02-18T04:09:48.408Z,19.70
2023-02-18T04:12:15.281Z,19.70
2023-02-18T04:14:42.161Z,19.70
2023-02-18T04:17:09.991Z,19.70
2023-02-18T04:19:36.836Z,19.70
2023-02-18T04:22:03.622Z,19.70
2023-02-18T04:24:30.376Z,19.70
2023-02-18T04:26:57.153Z,19.70
2023-02-18T04:29:23.910Z,19.70
2023-02-18T04:31:50.717Z,19.70
2023-02-18T04:34:17.550Z,19.70
2023-02-18T04:36:44.370Z,19.70
2023-02-18T04:39:11.130Z,19.70
2023-02-18T04:41:37.976Z,19.70
2023-02-18T04:44:04.776Z,19.70
2023-02-18T04:46:32.671Z,19.70
2023-02-18T04:48:59.435Z,19.70
2023-02-18T04:51:26.191Z,19.70
2023-02-18T04:53:52.941Z,19.60
2023-02-18T04:56:20.521Z,19.60
2023-02-18T04:58:47.395Z,19.60
2023-02-18T05:01:14.285Z,19.60
2023-02-18T05:03:41.132Z,19.60
2023-02-18T05:06:08.248Z,19.60
2023-02-18T05:08:35.206Z,19.70
2023-02-18T05:11:07.172Z,19.80
2023-02-18T05:13:34.550Z,19.80
2023-02-18T05:16:01.497Z,19.90
2023-02-18T05:18:28.416Z,20.00
2023-02-18T05:20:55.220Z,20.10
2023-02-18T05:23:22.043Z,20.20
2023-02-18T05:25:48.857Z,20.20
2023-02-18T05:28:15.723Z,20.30
2023-02-18T05:30:42.612Z,20.40
2023-02-18T05:33:09.412Z,20.40
2023-02-18T05:35:36.195Z,20.50
2023-02-18T05:38:02.931Z,20.50
2023-02-18T05:40:29.718Z,20.50
2023-02-18T05:42:56.587Z,20.50
2023-02-18T05:45:23.351Z,20.40
2023-02-18T05:47:50.125Z,20.40
2023-02-18T05:50:17.384Z,20.40
2023-02-18T05:52:44.123Z,20.40
2023-02-18T05:55:10.881Z,20.40
2023-02-18T05:57:37.655Z,20.50
2023-02-18T06:00:05.862Z,20.50
2023-02-18T06:02:33.259Z,20.60
2023-02-18T06:05:00.036Z,20.60
2023-02-18T06:07:26.843Z,20.70
2023-02-18T06:09:53.914Z,20.70
2023-02-18T06:12:20.714Z,20.70
2023-02-18T06:14:47.502Z,20.70
2023-02-18T06:17:15.716Z,20.70
2023-02-18T06:19:42.485Z,20.60
2023-02-18T06:22:09.238Z,20.60
2023-02-18T06:24:36.008Z,20.60
2023-02-18T06:27:03.979Z,20.50
2023-02-18T06:29:31.372Z,20.40
2023-02-18T06:32:01.349Z,20.40
2023-02-18T06:34:28.648Z,20.30
2023-02-18T06:36:55.504Z,20.30
2023-02-18T06:39:22.376Z,20.30
2023-02-18T06:41:49.161Z,20.30
2023-02-18T06:44:17.374Z,20.30
2023-02-18T06:46:44.941Z,20.30
2023-02-18T06:49:11.934Z,20.40
2023-02-18T06:51:38.848Z,20.40
2023-02-18T06:54:06.028Z,20.40
2023-02-18T06:56:33.189Z,20.50
2023-02-18T06:59:00.008Z,20.50
2023-02-18T07:01:26.807Z,20.50
2023-02-18T07:03:53.698Z,20.50
2023-02-18T07:06:20.495Z,20.40
2023-02-18T07:08:47.283Z,20.40
2023-02-18T07:11:14.188Z,20.30
2023-02-18T07:13:40.987Z,20.20
2023-02-18T07:16:08.126Z,20.20
2023-02-18T07:18:35.134Z,20.20
2023-02-18T07:21:01.911Z,20.10
2023-02-18T07:23:28.824Z,20.20
2023-02-18T07:26:05.630Z,20.20
2023-02-18T07:28:32.661Z,20.30
2023-02-18T07:30:59.501Z,20.30
2023-02-18T07:33:26.404Z,20.30
2023-02-18T07:35:54.856Z,20.40
2023-02-18T07:38:23.001Z,20.50
2023-02-18T07:40:50.355Z,20.50
2023-02-18T07:43:17.367Z,20.60
2023-02-18T07:45:45.001Z,20.60
2023-02-18T07:48:12.516Z,20.60
2023-02-18T07:50:40.794Z,20.60
2023-02-18T07:53:08.568Z,20.50
2023-02-18T07:55:51.135Z,20.40
2023-02-18T07:58:29.238Z,20.40
2023-02-18T08:00:56.763Z,20.30
2023-02-18T08:03:30.201Z,20.20
2023-02-18T08:05:58.046Z,20.20
2023-02-18T08:08:26.874Z,20.20
2023-02-18T08:10:55.709Z,20.20
2023-02-18T08:13:22.688Z,20.20
2023-02-18T08:15:49.628Z,20.30
2023-02-18T08:18:19.273Z,20.30
2023-02-18T08:20:47.591Z,20.30
2023-02-18T08:23:15.739Z,20.30
2023-02-18T08:25:48.729Z,20.30
2023-02-18T08:28:18.746Z,20.20
2023-02-18T08:30:50.613Z,20.20
2023-02-18T08:33:17.882Z,20.20
2023-02-18T08:35:45.720Z,20.20
2023-02-18T08:38:12.706Z,20.20
2023-02-18T08:40:40.941Z,20.10
2023-02-18T08:43:07.848Z,20.10
2023-02-18T08:45:36.036Z,20.00
2023-02-18T08:48:16.597Z,20.00
2023-02-18T08:50:45.900Z,20.10
2023-02-18T08:53:12.703Z,20.10
2023-02-18T08:55:40.901Z,20.20
2023-02-18T08:58:07.780Z,20.20
2023-02-18T09:00:35.141Z,20.30
2023-02-18T09:03:02.244Z,20.30
2023-02-18T09:05:29.164Z,20.40
2023-02-18T09:07:56.080Z,20.40
2023-02-18T09:10:23.445Z,20.50
2023-02-18T09:12:50.383Z,20.50
2023-02-18T09:15:17.522Z,20.50
2023-02-18T09:17:44.599Z,20.60
2023-02-18T09:20:11.845Z,20.60
2023-02-18T09:22:38.692Z,20.60
2023-02-18T09:25:07.365Z,20.60
2023-02-18T09:27:34.310Z,20.60
2023-02-18T09:30:01.119Z,20.50
2023-02-18T09:32:34.740Z,20.50
2023-02-18T09:35:03.281Z,20.50
2023-02-18T09:37:30.929Z,20.40
2023-02-18T09:39:57.824Z,20.50
2023-02-18T09:42:34.875Z,20.50
2023-02-18T09:45:07.004Z,20.50
2023-02-18T09:47:41.288Z,20.50
2023-02-18T09:50:18.458Z,20.50
2023-02-18T09:52:45.579Z,20.50
2023-02-18T09:55:27.149Z,20.60
2023-02-18T09:57:57.134Z,20.60
2023-02-18T10:00:37.476Z,20.60
2023-02-18T10:03:17.542Z,20.60
2023-02-18T10:06:03.892Z,20.60
2023-02-18T10:08:39.663Z,20.70
2023-02-18T10:11:13.794Z,20.60
2023-02-18T10:13:41.477Z,20.70
2023-02-18T10:16:09.122Z,20.70
2023-02-18T10:18:41.976Z,20.70
2023-02-18T10:21:36.144Z,20.80
2023-02-18T10:24:18.378Z,20.90
2023-02-18T10:26:45.290Z,20.90
2023-02-18T10:29:21.426Z,20.90
2023-02-18T10:32:06.111Z,21.00
2023-02-18T10:34:48.384Z,21.00
2023-02-18T10:37:39.309Z,21.10
2023-02-18T10:40:35.337Z,21.10
2023-02-18T10:43:32.504Z,21.10
2023-02-18T10:46:04.982Z,21.20
2023-02-18T10:49:18.118Z,21.30
2023-02-18T10:51:55.090Z,21.30
2023-02-18T10:54:27.010Z,21.30
2023-02-18T10:56:59.502Z,21.40
2023-02-18T10:59:32.306Z,21.40
2023-02-18T11:02:13.336Z,21.50
2023-02-18T11:04:42.873Z,21.50
2023-02-18T11:07:16.350Z,21.60
2023-02-18T11:09:51.671Z,21.60
2023-02-18T11:12:25.935Z,21.70
2023-02-18T11:15:07.494Z,21.70
2023-02-18T11:17:37.769Z,21.70
2023-02-18T11:20:24.442Z,21.80
2023-02-18T11:22:51.638Z,21.70
2023-02-18T11:25:24.547Z,21.70
2023-02-18T11:27:56.890Z,21.70
2023-02-18T11:30:43.876Z,21.70
2023-02-18T11:33:23.905Z,21.70
2023-02-18T11:35:55.929Z,21.80
2023-02-18T11:38:54.096Z,21.70
2023-02-18T11:41:30.796Z,21.70
2023-02-18T11:43:58.635Z,21.70
2023-02-18T11:46:27.542Z,21.70
2023-02-18T11:48:55.048Z,21.60
2023-02-18T11:51:28.073Z,21.60
2023-02-18T11:53:59.730Z,21.60
2023-02-18T11:56:29.708Z,21.50
2023-02-18T11:58:57.840Z,21.50
2023-02-18T12:01:45.401Z,21.50
2023-02-18T12:04:12.408Z,21.50
2023-02-18T12:07:14.216Z,21.60
2023-02-18T12:09:47.826Z,21.60
2023-02-18T12:12:17.584Z,21.70
2023-02-18T12:14:44.850Z,21.70
2023-02-18T12:17:30.237Z,21.80
2023-02-18T12:20:14.075Z,21.80
2023-02-18T12:23:23.838Z,21.90
2023-02-18T12:26:15.744Z,21.90
2023-02-18T12:28:45.419Z,22.00
2023-02-18T12:31:38.455Z,22.00
2023-02-18T12:34:37.408Z,22.00
2023-02-18T12:37:22.770Z,22.00
2023-02-18T12:39:52.312Z,22.00
2023-02-18T12:42:27.510Z,22.00
2023-02-18T12:45:48.606Z,21.90
2023-02-18T12:48:37.067Z,21.90
2023-02-18T12:51:32.812Z,21.90
2023-02-18T12:54:17.734Z,21.80
2023-02-18T12:57:04.166Z,21.80
2023-02-18T12:59:42.732Z,21.80
2023-02-18T13:02:28.079Z,21.80
2023-02-18T13:04:54.851Z,21.80
2023-02-18T13:07:29.589Z,21.80
2023-02-18T13:10:09.454Z,21.90
2023-02-18T13:12:59.110Z,21.90
2023-02-18T13:15:34.288Z,22.00
2023-02-18T13:18:05.514Z,22.00
2023-02-18T13:20:59.061Z,22.00
2023-02-18T13:23:33.385Z,22.00
2023-02-18T13:26:06.683Z,22.10
2023-02-18T13:28:58.607Z,22.10
2023-02-18T13:31:28.450Z,22.20
2023-02-18T13:34:21.920Z,22.20
2023-02-18T13:37:10.007Z,22.20
2023-02-18T13:39:38.893Z,22.20
2023-02-18T13:42:32.067Z,22.10
2023-02-18T13:44:58.828Z,22.10
2023-02-18T13:47:40.533Z,22.00
2023-02-18T13:50:22.174Z,21.90
2023-02-18T13:52:50.432Z,21.80
2023-02-18T13:55:26.121Z,21.70
2023-02-18T13:57:55.521Z,21.60
2023-02-18T14:00:25.765Z,21.60
2023-02-18T14:03:05.042Z,21.50
2023-02-18T14:05:41.903Z,21.50
2023-02-18T14:08:35.154Z,21.60
2023-02-18T14:11:21.904Z,21.50
2023-02-18T14:14:00.787Z,21.60
2023-02-18T14:17:13.128Z,21.60
2023-02-18T14:19:40.318Z,21.60
2023-02-18T14:22:25.933Z,21.70
2023-02-18T14:25:17.206Z,21.80
2023-02-18T14:27:44.043Z,21.80
2023-02-18T14:30:28.359Z,21.90
2023-02-18T14:33:03.142Z,21.90
2023-02-18T14:36:00.531Z,21.90
2023-02-18T14:38:34.244Z,21.90
2023-02-18T14:41:15.134Z,21.90
2023-02-18T14:44:09.852Z,21.80
2023-02-18T14:46:57.497Z,21.80
2023-02-18T14:49:37.963Z,21.70
2023-02-18T14:52:10.063Z,21.70
2023-02-18T14:54:37.328Z,21.70
2023-02-18T14:57:07.782Z,21.60
2023-02-18T14:59:39.817Z,21.70
2023-02-18T15:02:19.943Z,21.60
2023-02-18T15:04:47.500Z,21.70
2023-02-18T15:07:14.329Z,21.70
2023-02-18T15:09:53.758Z,21.70
2023-02-18T15:12:25.655Z,21.80
2023-02-18T15:14:56.353Z,21.80
2023-02-18T15:17:27.639Z,21.90
2023-02-18T15:20:04.779Z,21.80
2023-02-18T15:22:34.078Z,21.80
2023-02-18T15:25:01.469Z,21.80
2023-02-18T15:27:30.913Z,21.80
2023-02-18T15:30:03.826Z,21.80
2023-02-18T15:32:32.850Z,21.80
2023-02-18T15:35:02.494Z,21.70
2023-02-18T15:37:30.838Z,21.70
2023-02-18T15:39:58.013Z,21.60
2023-02-18T15:42:33.707Z,21.60
2023-02-18T15:45:23.420Z,21.60
2023-02-18T15:47:55.304Z,21.50
2023-02-18T15:50:31.881Z,21.50
2023-02-18T15:53:05.031Z,21.50
2023-02-18T15:55:35.494Z,21.40
2023-02-18T15:58:05.575Z,21.40
2023-02-18T16:00:39.157Z,21.30
2023-02-18T16:03:15.181Z,21.30
2023-02-18T16:05:42.802Z,21.30
2023-02-18T16:08:22.826Z,21.30
2023-02-18T16:10:54.272Z,21.40
2023-02-18T16:13:21.594Z,21.40
2023-02-18T16:15:50.929Z,21.40
2023-02-18T16:18:40.135Z,21.50
2023-02-18T16:21:29.733Z,21.50
2023-02-18T16:24:02.032Z,21.60
2023-02-18T16:26:39.947Z,21.70
2023-02-18T16:29:32.625Z,21.70
2023-02-18T16:31:59.562Z,21.70
2023-02-18T16:34:27.683Z,21.80
2023-02-18T16:37:13.624Z,21.80
2023-02-18T16:39:40.580Z,21.90
2023-02-18T16:42:11.817Z,21.90
2023-02-18T16:44:39.269Z,21.90
2023-02-18T16:47:07.238Z,22.00
2023-02-18T16:49:35.064Z,22.00
2023-02-18T16:52:07.554Z,22.10
2023-02-18T16:54:34.650Z,22.10
2023-02-18T16:57:01.463Z,22.20
2023-02-18T16:59:28.329Z,22.20
2023-02-18T17:01:56.036Z,22.20
2023-02-18T17:04:23.615Z,22.30
2023-02-18T17:06:51.102Z,22.30
2023-02-18T17:09:22.149Z,22.30
2023-02-18T17:11:54.638Z,22.40
2023-02-18T17:14:22.969Z,22.40
2023-02-18T17:16:53.099Z,22.40
2023-02-18T17:19:22.927Z,22.40
2023-02-18T17:21:49.812Z,22.40
2023-02-18T17:24:18.340Z,22.30
2023-02-18T17:26:45.150Z,22.20
2023-02-18T17:29:12.279Z,22.10
2023-02-18T17:31:44.992Z,22.00
2023-02-18T17:34:20.385Z,22.00
2023-02-18T17:36:47.250Z,21.90
2023-02-18T17:39:15.822Z,21.90
2023-02-18T17:41:42.951Z,21.90
2023-02-18T17:44:20.543Z,21.80
2023-02-18T17:46:49.702Z,21.80
2023-02-18T17:49:17.119Z,21.70
2023-02-18T17:51:45.570Z,21.70
2023-02-18T17:54:20.260Z,21.70
2023-02-18T17:56:47.275Z,21.70
2023-02-18T17:59:14.282Z,21.70
2023-02-18T18:01:42.386Z,21.70
2023-02-18T18:04:17.727Z,21.70
2023-02-18T18:06:45.760Z,21.70
2023-02-18T18:09:12.679Z,21.70
2023-02-18T18:11:39.456Z,21.60
2023-02-18T18:14:06.922Z,21.60
2023-02-18T18:16:33.777Z,21.50
2023-02-18T18:19:00.595Z,21.50
2023-02-18T18:21:35.841Z,21.30
2023-02-18T18:24:03.429Z,21.30
2023-02-18T18:26:30.720Z,21.20
2023-02-18T18:28:57.888Z,21.20
2023-02-18T18:31:24.944Z,21.20
2023-02-18T18:33:53.194Z,21.20
2023-02-18T18:36:22.016Z,21.20
2023-02-18T18:38:49.136Z,21.20
2023-02-18T18:41:21.401Z,21.20
2023-02-18T18:43:49.352Z,21.10
2023-02-18T18:46:16.429Z,21.10
2023-02-18T18:48:43.274Z,21.20
2023-02-18T18:51:17.685Z,21.20
2023-02-18T18:53:44.646Z,21.20
2023-02-18T18:56:12.210Z,21.30
2023-02-18T18:58:39.023Z,21.30
2023-02-18T19:01:13.011Z,21.40
2023-02-18T19:03:41.424Z,21.40
2023-02-18T19:06:11.066Z,21.50
2023-02-18T19:08:37.864Z,21.50
2023-02-18T19:11:05.572Z,21.50
2023-02-18T19:13:35.620Z,21.50
2023-02-18T19:16:22.454Z,21.50
2023-02-18T19:18:49.600Z,21.50
2023-02-18T19:21:16.917Z,21.50
2023-02-18T19:23:44.111Z,21.50
2023-02-18T19:26:12.562Z,21.50
2023-02-18T19:28:39.892Z,21.40
2023-02-18T19:31:11.069Z,21.40
2023-02-18T19:33:39.097Z,21.30
2023-02-18T19:36:08.825Z,21.30
2023-02-18T19:38:35.963Z,21.30
2023-02-18T19:41:12.282Z,21.20
2023-02-18T19:43:40.254Z,21.10
2023-02-18T19:46:14.577Z,21.10
2023-02-18T19:48:42.261Z,21.10
2023-02-18T19:51:10.093Z,21.20
2023-02-18T19:53:37.270Z,21.10
2023-02-18T19:56:07.879Z,21.10
2023-02-18T19:58:35.838Z,21.10
2023-02-18T20:01:03.187Z,21.10
2023-02-18T20:03:30.080Z,21.00
2023-02-18T20:05:56.832Z,21.00
2023-02-18T20:08:23.608Z,21.00
2023-02-18T20:10:59.994Z,21.00
2023-02-18T20:13:27.145Z,20.90
2023-02-18T20:15:53.935Z,20.90
2023-02-18T20:18:21.004Z,20.90
2023-02-18T20:20:49.188Z,20.80
2023-02-18T20:23:16.145Z,20.80
2023-02-18T20:25:42.919Z,20.80
2023-02-18T20:28:09.733Z,20.80
2023-02-18T20:30:36.622Z,20.70
2023-02-18T20:33:03.603Z,20.70
2023-02-18T20:35:30.409Z,20.70
2023-02-18T20:37:57.224Z,20.70
2023-02-18T20:40:24.211Z,20.70
2023-02-18T20:42:51.038Z,20.60
2023-02-18T20:45:18.153Z,20.60
2023-02-18T20:47:48.066Z,20.60
2023-02-18T20:50:15.880Z,20.60
2023-02-18T20:52:42.691Z,20.60
2023-02-18T20:55:09.539Z,20.50
2023-02-18T20:57:36.458Z,20.50
2023-02-18T21:00:04.492Z,20.50
2023-02-18T21:02:32.063Z,20.50
2023-02-18T21:04:58.897Z,20.50
2023-02-18T21:07:25.686Z,20.50
2023-02-18T21:09:52.475Z,20.50
2023-02-18T21:12:19.313Z,20.50
2023-02-18T21:14:46.136Z,20.50
2023-02-18T21:17:12.896Z,20.50
2023-02-18T21:19:39.664Z,20.50
2023-02-18T21:22:06.409Z,20.50
2023-02-18T21:24:33.158Z,20.50
2023-02-18T21:26:59.951Z,20.60
2023-02-18T21:29:28.088Z,20.60
2023-02-18T21:31:54.996Z,20.60
2023-02-18T21:34:22.785Z,20.60
2023-02-18T21:36:49.594Z,20.60
2023-02-18T21:39:16.362Z,20.60
2023-02-18T21:41:43.126Z,20.60
2023-02-18T21:44:10.314Z,20.60
2023-02-18T21:46:38.913Z,20.60
2023-02-18T21:49:06.348Z,20.70
2023-02-18T21:51:58.140Z,20.70
2023-02-18T21:54:36.947Z,20.60
2023-02-18T21:57:05.323Z,20.70
2023-02-18T21:59:33.909Z,20.70
2023-02-18T22:02:02.232Z,20.70
2023-02-18T22:04:31.088Z,20.70
2023-02-18T22:06:58.465Z,20.70
2023-02-18T22:09:26.014Z,20.70
2023-02-18T22:11:53.130Z,20.70
2023-02-18T22:14:19.987Z,20.70
2023-02-18T22:16:46.917Z,20.70
2023-02-18T22:19:14.233Z,20.70
2023-02-18T22:21:41.802Z,20.70
2023-02-18T22:24:09.160Z,20.70
2023-02-18T22:26:35.929Z,20.70
2023-02-18T22:29:04.189Z,20.60
2023-02-18T22:31:32.558Z,20.60
2023-02-18T22:34:00.669Z,20.50
2023-02-18T22:36:29.234Z,20.50
2023-02-18T22:38:57.101Z,20.40
2023-02-18T22:41:26.038Z,20.40
2023-02-18T22:44:01.103Z,20.40
2023-02-18T22:46:31.377Z,20.30
2023-02-18T22:48:59.386Z,20.30
2023-02-18T22:51:28.969Z,20.30
2023-02-18T22:53:57.508Z,20.30
2023-02-18T22:56:26.115Z,20.30
2023-02-18T22:58:54.920Z,20.20
2023-02-18T23:01:24.330Z,20.20
2023-02-18T23:03:52.844Z,20.20
2023-02-18T23:06:20.744Z,20.20
2023-02-18T23:08:47.972Z,20.10
2023-02-18T23:11:20.168Z,20.10
2023-02-18T23:14:06.630Z,20.10
2023-02-18T23:16:53.961Z,20.10
2023-02-18T23:19:21.298Z,20.00
2023-02-18T23:21:48.091Z,20.00
2023-02-18T23:24:15.368Z,20.10
2023-02-18T23:26:42.331Z,20.00
2023-02-18T23:29:09.952Z,20.10
2023-02-18T23:31:37.952Z,20.10
2023-02-18T23:34:07.037Z,20.10
2023-02-18T23:36:35.516Z,20.10
2023-02-18T23:39:05.648Z,20.10
2023-02-18T23:41:32.432Z,20.10
2023-02-18T23:43:59.193Z,20.10
2023-02-18T23:46:26.936Z,20.00
2023-02-18T23:48:53.927Z,20.00
2023-02-18T23:51:22.895Z,19.90
2023-02-18T23:53:50.348Z,19.90
2023-02-18T23:56:26.773Z,19.90
2023-02-18T23:58:57.344Z,19.90
